Terminal Aerodrome Forecast
Issued by NWS

Home | Current Version | Previous Version | Text Only | Print | Product List | Glossary On
Versions: 1 2 3 4 5 6 7 8 9 10 11 12 13 14 15 16 17 18
000
FTUS45 KRIW 141909 AAA
TAFPNA
TAF AMD
KPNA 141909Z 1419/1518 VRB03KT P6SM BKN004
      TEMPO 1419/1420 SCT004
     FM142000 VRB06KT P6SM SKC
     FM150900 VRB06KT P6SM VCFG FEW001
     FM151400 VRB06KT P6SM SCT150
      AMD LTD TO CLD VIS AND WIND=

USA.gov is the U.S. government's official web portal to all federal, state and local government web resources and services.